This is the latest recevied weather packets stored in our database for station/object KQ4PPF. If no packets are shown the sender has not sent any weather packets the latest 10 day(s).
| Time | Temp. | Humidity | Pressure | Rain* | Wind** | Luminosity | Snow |
|---|---|---|---|---|---|---|---|
| 1778073024 | 17.78° C | 97% | 1012.6 hPa | 0 mm | - | 12 W/m² | - |
| 1778072721 | 17.78° C | 97% | 1012.8 hPa | 0 mm | - | 6 W/m² | - |
| 1778072418 | 17.78° C | 97% | 1012.8 hPa | 0 mm | - | 1 W/m² | - |
| 1778072116 | 17.78° C | 97% | 1012.7 hPa | 0 mm | - | 2 W/m² | - |
| 1778071814 | 17.78° C | 96% | 1012.4 hPa | 0 mm | - | 4 W/m² | - |
| 1778071511 | 17.78° C | 96% | 1011.9 hPa | 0 mm | - | 6 W/m² | - |
| 1778071209 | 18.33° C | 95% | 1012.2 hPa | 0 mm | - | 2 W/m² | - |
| 1778070907 | 18.33° C | 95% | 1012.3 hPa | 0 mm | - | 0 W/m² | - |
| 1778070604 | 17.78° C | 95% | 1011.7 hPa | 0 mm | - | 4 W/m² | - |
| 1778070301 | 17.78° C | 95% | 1011.8 hPa | 0 mm | - | 6 W/m² | - |
| 1778069999 | 17.78° C | 95% | 1011.8 hPa | 0 mm | - | 3 W/m² | - |
| 1778069696 | 17.78° C | 95% | 1011.8 hPa | 0 mm | - | 1 W/m² | - |
| 1778069393 | 17.78° C | 95% | 1011.7 hPa | 0 mm | - | 1 W/m² | - |
| 1778069090 | 17.78° C | 95% | 1011.5 hPa | 0 mm | - | 2 W/m² | - |
| 1778068787 | 17.78° C | 95% | 1011.3 hPa | 0 mm | - | 5 W/m² | - |
| 1778068486 | 17.78° C | 95% | 1011.5 hPa | 0 mm | - | 6 W/m² | - |
| 1778068184 | 17.78° C | 95% | 1011.5 hPa | 0 mm | - | 5 W/m² | - |
| 1778067881 | 17.78° C | 94% | 1011.7 hPa | 0 mm | - | 2 W/m² | - |
| 1778067579 | 17.78° C | 94% | 1011.5 hPa | 0 mm | - | 3 W/m² | - |
| 1778067277 | 17.78° C | 94% | 1011.3 hPa | 0 mm | - | 3 W/m² | - |
| 1778066973 | 17.78° C | 94% | 1011.4 hPa | 0 mm | - | 2 W/m² | - |
| 1778066671 | 17.78° C | 93% | 1011 hPa | 0 mm | - | 3 W/m² | - |
| 1778066368 | 17.78° C | 93% | 1011.6 hPa | 0 mm | - | 1 W/m² | - |
| 1778066066 | 18.33° C | 93% | 1011.5 hPa | 0 mm | - | 0 W/m² | - |
| 1778065762 | 18.33° C | 92% | 1011.4 hPa | 0 mm | - | 0 W/m² | - |
* Rain latest hour (hover to see other rain measurements)
** Current wind speed in m/s (hover to see current wind gust speed)